Time;durP1;ratioP1;P1;durP2;ratioP2;P2;SDS_P1;SDS_P2;PMS_P1;PMS_P2;Temp;Humidity;BMP_temperature;BMP_pressure;BME280_temperature;BME280_humidity;BME280_pressure;Samples;Min_cycle;Max_cycle;Signal;HPM_P1;HPM_P2
2024/02/24 00:00:56;;;;;;;2.97;2.67;;;;;;;6.23;100.00;99631.38;7765569;22;20214;-69
2024/02/24 00:04:18;;;;;;;5.37;3.50;;;;;;;6.23;100.00;99621.53;7775217;22;20210;-69
2024/02/24 00:07:40;;;;;;;4.63;2.43;;;;;;;6.20;100.00;99626.28;7772071;22;20255;-69
2024/02/24 00:11:01;;;;;;;3.70;2.63;;;;;;;6.12;100.00;99631.50;7775909;22;20210;-68
2024/02/24 00:14:22;;;;;;;1.67;1.53;;;;;;;6.15;100.00;99632.06;7777246;22;20218;-69
2024/02/24 00:17:44;;;;;;;4.50;2.00;;;;;;;6.11;100.00;99630.66;7769212;22;20465;-70
2024/02/24 00:21:05;;;;;;;2.13;1.60;;;;;;;6.12;100.00;99635.03;7769247;22;20210;-69
2024/02/24 00:24:27;;;;;;;1.87;1.47;;;;;;;6.04;100.00;99626.00;7757053;22;20210;-69
2024/02/24 00:27:51;;;;;;;7.40;2.30;;;;;;;6.03;100.00;99630.50;7771146;22;20214;-68
2024/02/24 00:31:15;;;;;;;2.23;1.60;;;;;;;6.09;100.00;99623.78;7771287;22;20214;-68
2024/02/24 00:34:36;;;;;;;2.37;1.97;;;;;;;6.06;100.00;99622.22;7777089;22;20218;-69
2024/02/24 00:37:57;;;;;;;1.93;1.77;;;;;;;5.97;100.00;99625.72;7734282;22;20218;-68
2024/02/24 00:41:19;;;;;;;6.53;2.23;;;;;;;5.82;100.00;99628.88;7769863;22;20206;-68
2024/02/24 00:44:40;;;;;;;1.40;1.30;;;;;;;5.66;100.00;99630.25;7778972;22;20211;-68
2024/02/24 00:48:01;;;;;;;2.07;1.73;;;;;;;5.56;100.00;99632.03;7769507;22;20219;-69
2024/02/24 00:51:22;;;;;;;2.10;1.90;;;;;;;5.60;100.00;99628.13;7726730;22;20203;-69
2024/02/24 00:54:43;;;;;;;6.33;2.20;;;;;;;5.63;100.00;99633.19;7777633;22;20207;-69
2024/02/24 00:58:05;;;;;;;2.17;1.70;;;;;;;5.61;100.00;99635.13;7768777;22;20249;-68
2024/02/24 01:01:26;;;;;;;2.73;2.40;;;;;;;5.72;100.00;99628.84;7769380;22;20489;-68
2024/02/24 01:04:48;;;;;;;4.90;1.87;;;;;;;5.69;100.00;99631.81;7775832;22;20214;-69
2024/02/24 01:08:09;;;;;;;1.33;1.23;;;;;;;5.49;100.00;99628.22;7773929;22;20210;-69
2024/02/24 01:11:31;;;;;;;1.27;1.07;;;;;;;5.41;100.00;99636.06;7765891;22;20222;-68
2024/02/24 01:14:54;;;;;;;2.83;1.63;;;;;;;5.18;100.00;99644.38;7774790;22;20560;-69
2024/02/24 01:18:16;;;;;;;2.53;1.70;;;;;;;5.13;100.00;99647.44;7776159;22;20452;-69
2024/02/24 01:21:41;;;;;;;1.50;1.40;;;;;;;5.17;100.00;99640.03;7750408;22;20293;-69
2024/02/24 01:25:02;;;;;;;6.27;3.30;;;;;;;5.25;100.00;99637.53;7780719;22;20305;-68
2024/02/24 01:28:23;;;;;;;3.93;2.40;;;;;;;5.14;100.00;99640.28;7776160;22;20209;-68
2024/02/24 01:31:45;;;;;;;6.20;2.10;;;;;;;5.05;100.00;99641.91;7776027;22;20232;-68
2024/02/24 01:35:08;;;;;;;2.73;1.33;;;;;;;5.05;100.00;99647.25;7774023;22;20705;-68
2024/02/24 01:38:29;;;;;;;3.40;2.27;;;;;;;5.18;100.00;99657.72;7777456;22;20549;-68
2024/02/24 01:41:50;;;;;;;3.77;2.70;;;;;;;5.06;100.00;99656.97;7773525;22;20556;-69
2024/02/24 01:45:11;;;;;;;2.37;2.10;;;;;;;4.92;100.00;99656.44;7771160;22;20214;-68
2024/02/24 01:48:34;;;;;;;2.53;1.83;;;;;;;4.92;100.00;99653.78;7776849;22;20297;-68
2024/02/24 01:51:54;;;;;;;1.60;1.33;;;;;;;4.99;100.00;99649.59;7774522;22;20612;-69
2024/02/24 01:55:17;;;;;;;1.50;1.40;;;;;;;5.02;100.00;99646.66;7775953;22;20285;-69
2024/02/24 01:58:38;;;;;;;3.33;2.37;;;;;;;5.02;100.00;99644.00;7781253;22;20221;-69
2024/02/24 02:01:59;;;;;;;2.13;1.93;;;;;;;4.95;100.00;99648.16;7773022;22;20210;-68
2024/02/24 02:05:22;;;;;;;3.63;2.47;;;;;;;4.95;100.00;99656.16;7771639;22;20269;-68
2024/02/24 02:08:43;;;;;;;2.83;2.07;;;;;;;4.93;100.00;99650.97;7779500;22;20222;-68
2024/02/24 02:12:04;;;;;;;2.13;1.77;;;;;;;4.88;100.00;99647.00;7752629;22;20484;-68
2024/02/24 02:15:25;;;;;;;2.23;1.80;;;;;;;4.91;100.00;99654.75;7759605;22;20210;-69
2024/02/24 02:18:45;;;;;;;2.57;1.87;;;;;;;4.93;100.00;99664.31;7775672;22;20207;-67
2024/02/24 02:22:11;;;;;;;7.30;1.83;;;;;;;4.88;100.00;99669.22;7772258;22;20212;-68
2024/02/24 02:25:33;;;;;;;2.33;1.63;;;;;;;4.81;100.00;99668.91;7777169;22;20210;-68
2024/02/24 02:28:54;;;;;;;1.57;1.50;;;;;;;4.64;100.00;99671.28;7778938;22;20244;-68
2024/02/24 02:32:15;;;;;;;3.50;2.23;;;;;;;4.65;100.00;99670.31;7770344;22;20256;-68
2024/02/24 02:35:36;;;;;;;5.13;3.43;;;;;;;4.76;100.00;99684.44;7764339;22;20214;-69
2024/02/24 02:38:57;;;;;;;2.00;1.80;;;;;;;4.74;100.00;99674.84;7770554;22;20772;-68
2024/02/24 02:42:19;;;;;;;2.23;2.10;;;;;;;4.78;100.00;99681.63;7773952;22;20211;-68
2024/02/24 02:45:40;;;;;;;2.47;2.27;;;;;;;4.69;100.00;99671.75;7730956;22;20625;-68
2024/02/24 02:49:01;;;;;;;3.53;3.10;;;;;;;4.78;100.00;99671.81;7776972;22;20562;-69
2024/02/24 02:52:22;;;;;;;3.07;2.37;;;;;;;4.81;100.00;99668.03;7772455;22;20214;-68
2024/02/24 02:55:43;;;;;;;2.30;1.63;;;;;;;4.66;100.00;99669.31;7773634;22;20214;-68
2024/02/24 02:59:07;;;;;;;7.33;2.33;;;;;;;4.50;100.00;99668.91;7781018;22;20236;-68
2024/02/24 03:02:28;;;;;;;3.17;2.83;;;;;;;4.52;100.00;99678.50;7770333;22;20557;-69
2024/02/24 03:05:49;;;;;;;2.77;2.10;;;;;;;4.55;100.00;99678.22;7771157;22;20207;-68
2024/02/24 03:09:10;;;;;;;3.23;2.47;;;;;;;4.58;100.00;99672.66;7780039;22;20529;-68
2024/02/24 03:12:31;;;;;;;2.27;2.03;;;;;;;4.40;100.00;99687.50;7772049;22;20452;-68
2024/02/24 03:15:53;;;;;;;5.07;1.93;;;;;;;4.19;100.00;99683.09;7776488;22;20206;-68
2024/02/24 03:19:14;;;;;;;2.37;1.60;;;;;;;4.29;100.00;99692.03;7777235;22;20608;-69
2024/02/24 03:22:38;;;;;;;3.07;1.97;;;;;;;4.17;100.00;99693.88;7770437;22;20311;-68
2024/02/24 03:25:59;;;;;;;6.47;3.20;;;;;;;4.25;100.00;99701.25;7772511;22;20453;-68
2024/02/24 03:29:20;;;;;;;3.43;1.97;;;;;;;4.23;100.00;99698.72;7780084;22;20214;-68
2024/02/24 03:32:42;;;;;;;3.27;2.87;;;;;;;4.23;100.00;99701.38;7765719;22;20207;-69
2024/02/24 03:36:04;;;;;;;2.83;2.10;;;;;;;4.33;100.00;99702.31;7771822;22;20265;-69
2024/02/24 03:39:25;;;;;;;4.73;1.83;;;;;;;4.30;100.00;99697.22;7778613;22;20214;-69
2024/02/24 03:42:46;;;;;;;2.70;2.27;;;;;;;4.17;100.00;99690.38;7773229;22;20210;-69
2024/02/24 03:46:07;;;;;;;3.10;2.20;;;;;;;4.07;100.00;99690.25;7771391;22;20206;-69
2024/02/24 03:49:29;;;;;;;6.00;2.17;;;;;;;4.05;100.00;99690.38;7776877;22;20309;-69
2024/02/24 03:52:50;;;;;;;10.87;2.13;;;;;;;4.10;100.00;99694.50;7770179;22;20206;-69
2024/02/24 03:56:11;;;;;;;3.67;2.27;;;;;;;4.28;100.00;99698.31;7772796;22;20211;-68
2024/02/24 03:59:32;;;;;;;2.33;2.10;;;;;;;4.03;100.00;99694.13;7778806;22;20278;-68
2024/02/24 04:02:53;;;;;;;2.00;1.80;;;;;;;4.02;100.00;99692.47;7767419;22;20767;-69
2024/02/24 04:06:16;;;;;;;2.53;1.97;;;;;;;4.12;100.00;99701.41;7770987;22;20206;-69
2024/02/24 04:09:40;;;;;;;2.10;1.90;;;;;;;4.10;100.00;99713.16;7779060;22;20239;-69
2024/02/24 04:13:01;;;;;;;3.37;2.20;;;;;;;4.04;100.00;99719.84;7773731;22;20206;-70
2024/02/24 04:16:22;;;;;;;5.00;2.20;;;;;;;3.98;100.00;99713.16;7773718;22;20463;-69
2024/02/24 04:19:43;;;;;;;1.50;1.40;;;;;;;3.97;100.00;99715.97;7777949;22;20290;-69
2024/02/24 04:23:05;;;;;;;3.43;3.13;;;;;;;3.92;100.00;99720.84;7772859;22;20215;-69
2024/02/24 04:26:26;;;;;;;3.13;2.03;;;;;;;3.95;100.00;99713.44;7751889;22;20206;-68
2024/02/24 04:29:47;;;;;;;4.73;2.30;;;;;;;4.03;100.00;99715.47;7780138;22;20210;-69
2024/02/24 04:33:07;;;;;;;1.93;1.40;;;;;;;3.91;100.00;99722.66;7766974;22;20244;-69
2024/02/24 04:36:28;;;;;;;3.83;2.37;;;;;;;3.97;100.00;99718.63;7773599;22;20206;-69
2024/02/24 04:39:52;;;;;;;2.57;1.73;;;;;;;3.89;100.00;99723.72;7777896;22;20455;-69
2024/02/24 04:43:12;;;;;;;2.53;1.60;;;;;;;3.98;100.00;99721.16;7773826;22;20822;-69
2024/02/24 04:46:34;;;;;;;1.77;1.67;;;;;;;3.88;100.00;99719.38;7740638;22;20203;-69
2024/02/24 04:49:55;;;;;;;6.57;1.93;;;;;;;3.99;100.00;99714.88;7778904;22;20464;-69
2024/02/24 04:53:16;;;;;;;4.27;2.00;;;;;;;4.02;100.00;99714.66;7773049;22;20218;-69
2024/02/24 04:56:39;;;;;;;1.93;1.83;;;;;;;3.89;100.00;99723.72;7771848;22;20217;-69
2024/02/24 05:00:00;;;;;;;3.77;2.17;;;;;;;3.98;100.00;99720.34;7781233;22;20215;-69
2024/02/24 05:03:21;;;;;;;1.60;1.50;;;;;;;3.90;100.00;99728.94;7772394;22;20210;-69
2024/02/24 05:06:42;;;;;;;3.50;2.57;;;;;;;3.84;100.00;99726.75;7771482;22;20210;-69
2024/02/24 05:10:04;;;;;;;4.93;2.13;;;;;;;3.81;100.00;99735.03;7777237;22;20214;-67
2024/02/24 05:13:26;;;;;;;9.30;2.70;;;;;;;3.70;100.00;99734.16;7772263;22;20248;-68
2024/02/24 05:16:47;;;;;;;3.13;2.40;;;;;;;3.79;100.00;99738.78;7771264;22;20206;-68
2024/02/24 05:20:08;;;;;;;2.63;2.00;;;;;;;3.84;100.00;99742.75;7772989;22;20207;-67
2024/02/24 05:23:29;;;;;;;4.07;2.17;;;;;;;3.79;100.00;99754.75;7777376;22;20301;-68
2024/02/24 05:26:51;;;;;;;3.07;1.80;;;;;;;3.77;100.00;99757.56;7754292;22;20206;-69
2024/02/24 05:30:13;;;;;;;3.77;2.07;;;;;;;3.69;100.00;99757.28;7767362;22;20218;-68
2024/02/24 05:33:34;;;;;;;3.13;2.07;;;;;;;3.66;100.00;99762.00;7772452;22;20464;-68
2024/02/24 05:36:55;;;;;;;3.50;2.00;;;;;;;3.67;100.00;99761.88;7771493;22;20206;-69
2024/02/24 05:40:17;;;;;;;1.77;1.67;;;;;;;3.82;100.00;99758.03;7770913;22;20339;-68
2024/02/24 05:43:38;;;;;;;3.13;2.57;;;;;;;3.71;100.00;99758.00;7776378;22;20218;-69
2024/02/24 05:47:00;;;;;;;4.20;2.67;;;;;;;3.75;100.00;99763.97;7767908;22;20206;-69
2024/02/24 05:50:21;;;;;;;2.20;2.00;;;;;;;3.79;100.00;99760.09;7769561;22;20207;-68
2024/02/24 05:53:43;;;;;;;3.43;1.70;;;;;;;3.83;100.00;99764.22;7776207;22;20210;-68
2024/02/24 05:57:05;;;;;;;6.83;2.43;;;;;;;3.87;100.00;99763.84;7770106;22;20561;-69
2024/02/24 06:00:26;;;;;;;2.43;2.23;;;;;;;4.09;100.00;99768.31;7762351;22;20451;-68
2024/02/24 06:03:48;;;;;;;2.07;1.73;;;;;;;3.89;100.00;99774.38;7775922;22;20210;-69
2024/02/24 06:07:09;;;;;;;2.50;1.90;;;;;;;3.79;100.00;99774.28;7751356;22;20206;-69
2024/02/24 06:10:30;;;;;;;2.40;1.70;;;;;;;3.91;100.00;99775.09;7769316;22;20218;-69
2024/02/24 06:13:52;;;;;;;2.33;1.70;;;;;;;3.84;100.00;99784.53;7775552;22;20231;-68
2024/02/24 06:17:13;;;;;;;4.10;2.17;;;;;;;3.74;100.00;99788.91;7769020;22;20301;-68
2024/02/24 06:20:36;;;;;;;4.23;2.17;;;;;;;3.68;100.00;99784.91;7754909;22;20736;-69
2024/02/24 06:23:57;;;;;;;5.80;2.23;;;;;;;3.79;100.00;99792.06;7778521;22;20210;-69
2024/02/24 06:27:18;;;;;;;2.33;2.03;;;;;;;3.85;100.00;99794.25;7770505;22;20214;-69
2024/02/24 06:30:39;;;;;;;4.50;2.53;;;;;;;3.80;100.00;99793.75;7765440;22;20588;-69
2024/02/24 06:34:00;;;;;;;1.83;1.70;;;;;;;3.79;100.00;99790.25;7777891;22;20285;-68
2024/02/24 06:37:22;;;;;;;4.73;1.90;;;;;;;3.82;100.00;99794.47;7767151;22;20622;-68
2024/02/24 06:40:43;;;;;;;11.67;2.67;;;;;;;3.84;100.00;99801.41;7772234;22;20207;-69
2024/02/24 06:44:04;;;;;;;3.97;2.57;;;;;;;4.00;100.00;99801.06;7781057;22;20210;-68
2024/02/24 06:47:25;;;;;;;4.43;2.03;;;;;;;3.95;100.00;99795.22;7765239;22;20987;-68
2024/02/24 06:50:46;;;;;;;3.07;2.70;;;;;;;4.02;100.00;99799.97;7772191;22;20214;-69
2024/02/24 06:54:08;;;;;;;3.63;2.33;;;;;;;4.22;100.00;99806.34;7778086;22;20211;-69
2024/02/24 06:57:29;;;;;;;5.83;2.40;;;;;;;3.85;100.00;99810.25;7769060;22;20516;-69
2024/02/24 07:00:50;;;;;;;1.70;1.60;;;;;;;3.84;100.00;99812.06;7773390;22;20215;-68
2024/02/24 07:04:10;;;;;;;2.07;1.60;;;;;;;4.01;100.00;99811.59;7771054;22;20573;-68
2024/02/24 07:07:31;;;;;;;3.30;2.33;;;;;;;3.98;100.00;99816.31;7768819;22;20476;-68
2024/02/24 07:10:54;;;;;;;3.20;1.90;;;;;;;3.92;100.00;99816.81;7768164;22;20291;-68
2024/02/24 07:14:15;;;;;;;4.07;2.30;;;;;;;3.81;100.00;99819.44;7773766;22;20210;-69
2024/02/24 07:17:36;;;;;;;2.07;1.70;;;;;;;4.13;100.00;99820.41;7764626;22;20219;-69
2024/02/24 07:20:57;;;;;;;3.70;2.30;;;;;;;4.12;100.00;99820.53;7769113;22;20203;-69
2024/02/24 07:24:18;;;;;;;2.93;2.73;;;;;;;4.37;100.00;99825.63;7776559;22;20932;-69
2024/02/24 07:27:40;;;;;;;7.47;2.57;;;;;;;4.45;100.00;99833.84;7768487;22;20251;-69
2024/02/24 07:31:01;;;;;;;6.60;2.20;;;;;;;4.49;100.00;99836.16;7766828;22;20222;-69
2024/02/24 07:34:22;;;;;;;5.17;2.37;;;;;;;4.57;100.00;99833.72;7771393;22;20533;-69
2024/02/24 07:37:43;;;;;;;3.33;2.20;;;;;;;4.90;100.00;99829.28;7769359;22;20210;-70
2024/02/24 07:41:04;;;;;;;2.53;2.33;;;;;;;4.82;100.00;99836.09;7772114;22;20210;-70
2024/02/24 07:44:26;;;;;;;6.37;4.50;;;;;;;6.04;100.00;99830.16;7775122;22;20206;-69
2024/02/24 07:47:47;;;;;;;4.23;2.00;;;;;;;5.35;100.00;99826.31;7765434;22;20212;-69
2024/02/24 07:51:08;;;;;;;2.77;2.57;;;;;;;5.50;100.00;99826.84;7761969;22;20214;-69
2024/02/24 07:54:29;;;;;;;2.50;2.00;;;;;;;5.27;100.00;99827.91;7774862;22;20206;-69
2024/02/24 07:57:50;;;;;;;4.83;2.00;;;;;;;5.27;100.00;99828.78;7767409;22;20592;-68
2024/02/24 08:01:12;;;;;;;3.43;2.50;;;;;;;5.29;100.00;99850.88;7762174;22;20213;-68
2024/02/24 08:04:33;;;;;;;3.50;2.30;;;;;;;5.09;100.00;99845.50;7769796;22;20218;-68
2024/02/24 08:07:54;;;;;;;2.33;2.10;;;;;;;5.05;100.00;99854.72;7767819;22;20214;-68
2024/02/24 08:11:15;;;;;;;3.57;2.17;;;;;;;4.93;100.00;99858.38;7765274;22;20235;-68
2024/02/24 08:14:36;;;;;;;2.03;1.87;;;;;;;5.19;100.00;99863.31;7776503;22;20263;-69
2024/02/24 08:17:58;;;;;;;2.97;2.17;;;;;;;5.06;100.00;99862.63;7764788;22;20210;-69
2024/02/24 08:21:23;;;;;;;2.67;2.23;;;;;;;4.98;100.00;99866.88;7764510;22;20218;-69
2024/02/24 08:24:44;;;;;;;3.37;2.67;;;;;;;5.02;100.00;99876.34;7774564;22;20207;-68
2024/02/24 08:28:05;;;;;;;2.93;2.63;;;;;;;5.16;100.00;99878.72;7769299;22;20211;-69
2024/02/24 08:31:27;;;;;;;4.53;2.37;;;;;;;5.23;100.00;99879.91;7757916;22;20293;-68
2024/02/24 08:34:49;;;;;;;2.30;2.10;;;;;;;5.32;100.00;99879.16;7745966;22;20214;-69
2024/02/24 08:38:10;;;;;;;18.87;3.17;;;;;;;5.08;100.00;99878.50;7766766;22;20499;-69
2024/02/24 08:41:33;;;;;;;3.57;2.17;;;;;;;5.15;100.00;99874.38;7768056;22;20202;-67
2024/02/24 08:44:53;;;;;;;2.67;1.77;;;;;;;5.24;100.00;99868.22;7775620;22;20589;-67
2024/02/24 08:48:15;;;;;;;3.77;2.50;;;;;;;5.39;100.00;99877.66;7772855;22;20560;-69
2024/02/24 08:51:37;;;;;;;3.93;2.70;;;;;;;5.54;100.00;99871.03;7770842;22;20596;-66
2024/02/24 08:54:58;;;;;;;3.70;2.13;;;;;;;5.72;100.00;99869.47;7773014;22;20218;-67
2024/02/24 08:58:19;;;;;;;4.07;2.80;;;;;;;5.45;100.00;99875.31;7777164;22;20218;-68
2024/02/24 09:01:40;;;;;;;5.87;2.77;;;;;;;5.87;100.00;99873.56;7769334;22;20214;-66
2024/02/24 09:05:01;;;;;;;3.13;2.80;;;;;;;6.11;100.00;99874.09;7771121;22;20214;-68
2024/02/24 09:08:23;;;;;;;2.97;2.07;;;;;;;5.57;100.00;99876.97;7751321;22;20210;-69
2024/02/24 09:11:46;;;;;;;6.13;2.70;;;;;;;5.65;100.00;99879.84;7770498;22;20214;-68
2024/02/24 09:15:07;;;;;;;4.07;2.97;;;;;;;6.23;100.00;99882.91;7753486;22;20206;-67
2024/02/24 09:18:30;;;;;;;6.67;2.90;;;;;;;6.02;100.00;99890.13;7770289;22;20210;-68
2024/02/24 09:21:51;;;;;;;2.73;2.37;;;;;;;6.18;100.00;99894.00;7772403;22;20210;-67
2024/02/24 09:25:16;;;;;;;4.67;2.13;;;;;;;6.53;100.00;99890.91;7773124;22;20214;-68
2024/02/24 09:28:37;;;;;;;3.60;3.20;;;;;;;7.31;100.00;99891.00;7777697;22;20214;-67
2024/02/24 09:31:58;;;;;;;4.53;2.43;;;;;;;7.56;100.00;99892.25;7766712;22;20214;-67
2024/02/24 09:35:19;;;;;;;2.83;2.53;;;;;;;8.00;100.00;99895.19;7768292;22;20218;-69
2024/02/24 09:38:40;;;;;;;2.13;1.93;;;;;;;8.21;100.00;99891.47;7778155;22;20222;-68
2024/02/24 09:42:03;;;;;;;5.47;2.47;;;;;;;7.92;100.00;99889.72;7773103;22;22299;-70
2024/02/24 09:45:27;;;;;;;2.60;1.60;;;;;;;8.04;100.00;99885.00;7774852;22;20633;-66
2024/02/24 09:48:48;;;;;;;5.10;2.47;;;;;;;8.80;100.00;99887.44;7774609;22;20237;-67
2024/02/24 09:52:09;;;;;;;3.17;2.00;;;;;;;9.01;100.00;99881.81;7772677;22;20214;-67
2024/02/24 09:55:30;;;;;;;3.30;1.90;;;;;;;10.79;100.00;99879.56;7774267;22;20222;-68
2024/02/24 09:58:54;;;;;;;3.80;2.00;;;;;;;16.63;100.00;99869.38;7773526;22;20209;-66
2024/02/24 10:02:15;;;;;;;4.17;1.93;;;;;;;18.09;92.60;99862.38;7761157;22;20214;-66
2024/02/24 10:05:39;;;;;;;2.90;1.87;;;;;;;17.20;80.62;99866.34;7773205;22;20242;-67
2024/02/24 10:09:00;;;;;;;4.38;2.08;;;;;;;15.61;81.12;99880.81;7777704;22;20288;-67
2024/02/24 10:12:21;;;;;;;2.25;1.95;;;;;;;17.34;81.25;99875.38;7774337;22;20691;-67
2024/02/24 10:15:44;;;;;;;5.47;1.85;;;;;;;16.20;73.32;99885.97;7775681;22;20644;-66
2024/02/24 10:19:06;;;;;;;7.15;1.73;;;;;;;16.11;76.60;99888.00;7774003;22;20574;-67
2024/02/24 10:22:27;;;;;;;4.45;2.28;;;;;;;15.60;77.21;99890.03;7775445;22;20219;-67
2024/02/24 10:25:48;;;;;;;2.30;1.65;;;;;;;16.81;76.23;99884.38;7774567;22;20207;-67
2024/02/24 10:29:09;;;;;;;3.72;1.42;;;;;;;15.11;73.56;99887.09;7776635;22;20211;-67
2024/02/24 10:32:32;;;;;;;2.80;1.67;;;;;;;13.98;82.33;99890.13;7764304;22;20446;-67
2024/02/24 10:35:55;;;;;;;1.63;1.53;;;;;;;13.07;90.36;99880.25;7773127;22;20301;-67
2024/02/24 10:39:17;;;;;;;2.20;1.57;;;;;;;11.82;99.04;99898.06;7778455;22;20248;-67
2024/02/24 10:42:39;;;;;;;3.50;1.53;;;;;;;11.47;100.00;99893.78;7776563;22;20487;-67
2024/02/24 10:46:00;;;;;;;1.40;1.00;;;;;;;16.20;88.93;99881.38;7777012;22;20210;-66
2024/02/24 10:49:22;;;;;;;5.30;1.20;;;;;;;16.09;76.96;99884.63;7772726;22;20218;-67
2024/02/24 10:52:44;;;;;;;1.52;1.10;;;;;;;13.46;85.56;99895.44;7773798;22;20218;-68
2024/02/24 10:56:06;;;;;;;2.10;1.53;;;;;;;12.57;93.14;99904.91;7776934;22;20202;-66
2024/02/24 10:59:28;;;;;;;2.93;1.50;;;;;;;10.77;100.00;99903.16;7780460;22;20298;-67
2024/02/24 11:02:51;;;;;;;0.90;0.90;;;;;;;9.93;100.00;99904.75;7771920;22;20624;-65
2024/02/24 11:06:14;;;;;;;1.60;1.10;;;;;;;9.97;100.00;99898.06;7772787;22;20210;-67
2024/02/24 11:09:37;;;;;;;5.80;1.63;;;;;;;10.04;100.00;99896.44;7780708;22;20233;-66
2024/02/24 11:16:32;;;;;;;3.20;1.50;;;;;;;9.23;100.00;99902.91;7697411;23;20658;-66
2024/02/24 11:19:53;;;;;;;1.10;1.00;;;;;;;9.30;100.00;99900.47;7696380;23;20216;-67
2024/02/24 11:23:23;;;;;;;0.90;0.90;;;;;;;9.92;100.00;99896.84;7681626;23;20203;-68
2024/02/24 11:26:44;;;;;;;2.60;2.40;;;;;;;10.88;100.00;99892.09;7699518;23;20211;-67
2024/02/24 11:30:42;;;;;;;2.10;1.20;;;;;;;14.03;100.00;99879.59;7705757;23;20215;-66
2024/02/24 11:34:05;;;;;;;1.40;1.30;;;;;;;12.36;100.00;99885.69;7689608;23;20211;-66
2024/02/24 11:37:27;;;;;;;1.10;1.00;;;;;;;11.42;100.00;99895.28;7695301;23;20216;-66
2024/02/24 11:40:51;;;;;;;2.20;1.90;;;;;;;11.53;100.00;99892.28;7697869;23;20461;-67
2024/02/24 11:44:12;;;;;;;1.73;1.47;;;;;;;11.08;100.00;99885.41;7703354;23;20216;-66
2024/02/24 11:47:35;;;;;;;1.77;1.50;;;;;;;11.60;100.00;99890.59;7688879;23;20299;-66
2024/02/24 11:50:56;;;;;;;1.87;1.40;;;;;;;11.76;100.00;99883.41;7696826;23;20216;-66
2024/02/24 11:54:17;;;;;;;0.90;0.90;;;;;;;11.55;100.00;99890.25;7702442;23;20574;-66
2024/02/24 11:57:41;;;;;;;2.00;1.83;;;;;;;13.23;100.00;99878.31;7694962;23;20220;-66
2024/02/24 12:01:04;;;;;;;1.57;1.20;;;;;;;13.14;96.21;99882.06;7693317;23;20276;-66
2024/02/24 12:04:26;;;;;;;5.80;1.73;;;;;;;14.11;91.66;99884.09;7702485;23;20212;-66
2024/02/24 12:07:47;;;;;;;1.37;1.27;;;;;;;16.70;79.43;99880.31;7680350;23;20448;-66
2024/02/24 12:11:08;;;;;;;1.77;1.10;;;;;;;17.21;71.27;99875.38;7698481;23;20212;-66
2024/02/24 12:14:31;;;;;;;1.17;1.08;;;;;;;14.40;76.51;99890.47;7702944;23;20208;-67
2024/02/24 12:17:52;;;;;;;0.83;0.83;;;;;;;12.40;84.75;99903.25;7692144;23;20215;-67
2024/02/24 12:21:14;;;;;;;1.57;1.07;;;;;;;11.60;93.32;99898.69;7689392;23;20431;-66
2024/02/24 12:24:37;;;;;;;2.47;1.23;;;;;;;10.54;99.07;99904.72;7680711;23;20573;-66
2024/02/24 12:27:59;;;;;;;0.93;0.80;;;;;;;9.90;100.00;99932.00;7694832;23;20212;-66
2024/02/24 12:31:22;;;;;;;2.07;1.37;;;;;;;11.06;100.00;99919.78;7689725;23;20609;-66
2024/02/24 12:34:44;;;;;;;1.40;1.30;;;;;;;10.84;100.00;99908.75;7700033;23;20302;-65
2024/02/24 12:38:05;;;;;;;0.90;0.77;;;;;;;10.80;100.00;99913.63;7700070;23;20211;-67
2024/02/24 12:41:26;;;;;;;1.87;1.23;;;;;;;11.07;100.00;99910.72;7696301;23;20216;-67
2024/02/24 12:44:47;;;;;;;1.60;1.03;;;;;;;12.04;100.00;99909.03;7704154;23;20207;-66
2024/02/24 12:48:10;;;;;;;2.93;1.30;;;;;;;10.99;100.00;99918.75;7698257;23;20295;-66
2024/02/24 12:51:31;;;;;;;1.93;1.17;;;;;;;11.23;100.00;99910.75;7695860;23;20211;-66
2024/02/24 12:54:51;;;;;;;1.20;1.10;;;;;;;11.43;100.00;99908.59;7678893;23;20208;-67
2024/02/24 12:58:12;;;;;;;2.97;1.20;;;;;;;11.51;100.00;99903.25;7704015;23;20208;-66
2024/02/24 13:01:33;;;;;;;0.90;0.90;;;;;;;10.43;100.00;99913.06;7692529;23;20274;-66
2024/02/24 13:04:56;;;;;;;0.97;0.87;;;;;;;10.23;100.00;99912.44;7701071;23;20211;-67
2024/02/24 13:08:17;;;;;;;1.00;1.00;;;;;;;9.74;100.00;99914.84;7702112;23;20203;-67
2024/02/24 13:11:40;;;;;;;2.00;1.33;;;;;;;10.09;100.00;99909.44;7698961;23;20579;-68
2024/02/24 13:15:01;;;;;;;1.87;1.30;;;;;;;9.81;100.00;99916.78;7686780;23;20558;-66
2024/02/24 13:18:22;;;;;;;0.90;0.90;;;;;;;9.58;100.00;99918.22;7696363;23;20207;-66
2024/02/24 13:21:44;;;;;;;1.17;1.07;;;;;;;10.03;100.00;99923.53;7688805;23;20231;-66
2024/02/24 13:25:06;;;;;;;1.03;0.93;;;;;;;10.28;100.00;99923.56;7700007;23;20608;-66
2024/02/24 13:28:27;;;;;;;1.60;1.50;;;;;;;9.82;100.00;99921.16;7692807;23;20431;-66
2024/02/24 13:31:48;;;;;;;4.30;2.03;;;;;;;10.09;100.00;99930.97;7685098;23;20235;-65
2024/02/24 13:35:09;;;;;;;2.57;1.30;;;;;;;9.60;100.00;99932.38;7677834;23;20211;-66
2024/02/24 13:38:31;;;;;;;1.07;1.00;;;;;;;9.54;100.00;99933.00;7701032;23;20207;-67
2024/02/24 13:41:55;;;;;;;1.73;0.90;;;;;;;9.46;100.00;99933.75;7693400;23;20211;-66
2024/02/24 13:45:16;;;;;;;1.20;1.07;;;;;;;9.37;100.00;99931.97;7694707;23;20544;-66
2024/02/24 13:48:36;;;;;;;1.20;1.07;;;;;;;9.49;100.00;99924.56;7699280;23;20211;-66
2024/02/24 13:51:57;;;;;;;2.10;1.27;;;;;;;9.60;100.00;99927.84;7695216;23;20219;-66
2024/02/24 13:55:19;;;;;;;1.83;1.43;;;;;;;9.56;100.00;99928.31;7695763;23;20245;-66
2024/02/24 13:58:40;;;;;;;1.17;0.90;;;;;;;9.72;100.00;99925.75;7704414;23;20562;-67
2024/02/24 14:02:02;;;;;;;0.93;0.83;;;;;;;9.65;100.00;99927.38;7689205;23;20562;-66
2024/02/24 14:05:23;;;;;;;3.93;1.07;;;;;;;9.56;100.00;99937.22;7693961;23;20212;-65
2024/02/24 14:08:44;;;;;;;1.90;1.17;;;;;;;9.51;100.00;99938.69;7701121;23;20212;-68
2024/02/24 14:12:07;;;;;;;1.33;1.23;;;;;;;9.46;100.00;99938.28;7693444;23;20311;-66
2024/02/24 14:15:28;;;;;;;4.80;2.37;;;;;;;9.61;100.00;99934.94;7697152;23;20216;-66
2024/02/24 14:18:50;;;;;;;1.47;1.37;;;;;;;9.64;100.00;99936.44;7698255;23;20216;-65
2024/02/24 14:22:11;;;;;;;1.30;1.20;;;;;;;9.79;100.00;99936.75;7695417;22;20220;-68
2024/02/24 14:25:32;;;;;;;1.37;1.30;;;;;;;9.81;100.00;99940.13;7669854;23;20211;-65
2024/02/24 14:28:54;;;;;;;3.90;1.73;;;;;;;9.46;100.00;99952.59;7704235;23;20216;-66
2024/02/24 14:32:16;;;;;;;1.67;1.23;;;;;;;9.42;100.00;99953.91;7695535;23;20220;-67
2024/02/24 14:35:38;;;;;;;1.60;1.50;;;;;;;9.54;100.00;99952.69;7696860;23;20212;-66
2024/02/24 14:38:59;;;;;;;1.47;1.20;;;;;;;9.38;100.00;99957.03;7664537;23;20219;-66
2024/02/24 14:42:20;;;;;;;1.50;1.40;;;;;;;9.24;100.00;99950.31;7696596;23;20676;-66
2024/02/24 14:45:42;;;;;;;3.00;2.13;;;;;;;9.38;100.00;99954.34;7694330;23;20220;-66
2024/02/24 14:49:04;;;;;;;2.23;1.10;;;;;;;9.47;100.00;99956.13;7702797;23;20259;-66
2024/02/24 14:52:25;;;;;;;3.50;1.37;;;;;;;9.46;100.00;99951.75;7677330;23;20219;-66
2024/02/24 14:55:46;;;;;;;1.97;1.80;;;;;;;9.45;100.00;99953.56;7698916;23;20208;-66
2024/02/24 14:59:07;;;;;;;0.97;0.97;;;;;;;9.39;100.00;99967.63;7705162;23;20540;-66
2024/02/24 15:02:29;;;;;;;1.60;1.27;;;;;;;9.30;100.00;99962.31;7694262;23;20449;-67
2024/02/24 15:05:50;;;;;;;1.20;0.90;;;;;;;9.27;100.00;99966.16;7691832;23;20290;-66
2024/02/24 15:09:11;;;;;;;1.10;1.10;;;;;;;9.19;100.00;99971.44;7680660;23;20212;-67
2024/02/24 15:12:32;;;;;;;1.30;1.13;;;;;;;9.20;100.00;99966.91;7688580;22;20212;-65
2024/02/24 15:15:53;;;;;;;1.20;1.10;;;;;;;9.32;100.00;99969.25;7693059;23;20519;-65
2024/02/24 15:19:17;;;;;;;1.03;0.93;;;;;;;9.37;100.00;99963.41;7704115;23;20514;-66
2024/02/24 15:22:37;;;;;;;5.97;1.50;;;;;;;9.35;100.00;99968.09;7700083;23;20259;-66
2024/02/24 15:25:58;;;;;;;1.13;1.13;;;;;;;9.12;100.00;99972.16;7696439;23;20216;-66
2024/02/24 15:29:19;;;;;;;2.73;1.53;;;;;;;9.17;100.00;99976.13;7701786;23;20204;-65
2024/02/24 15:32:39;;;;;;;0.83;0.70;;;;;;;9.20;100.00;99973.13;7689988;23;20216;-64
2024/02/24 15:36:04;;;;;;;1.20;1.10;;;;;;;9.16;100.00;99974.41;7697174;23;20207;-66
2024/02/24 15:39:24;;;;;;;1.50;1.40;;;;;;;9.06;100.00;99989.75;7704924;23;20574;-65
2024/02/24 15:42:56;;;;;;;1.03;0.97;;;;;;;8.68;100.00;100017.59;7695918;23;20212;-69
2024/02/24 15:46:46;;;;;;;1.00;1.00;;;;;;;6.31;100.00;100078.47;7641234;23;20207;-68
2024/02/24 15:50:28;;;;;;;2.43;1.27;;;;;;;6.05;100.00;100082.47;7654343;23;20528;-66